Create Custom Reports and Graphics: Custom Report

Latest Observations

Map

15 Minute Data

Latest Observation

20 Stations

15 Minute Data | America/Los_Angeles
as of 12/6/22 7:56 PM PST
Station Date Time Storm Total (In) Precip 24Hr (In) Temp 5ft (°F) Temp 30ft (°F) Inversion (°F) WindChill (°F) RH (%) Dew Pt (°F) Wind Spd (mph) Wind Gust (mph) Solar Rad (W/m2) Daily Min Temp (°F) Daily Max Temp (°F) Daily Rain (In) Daily ETo (in)
Shandon ETo (SLO-1) 12/6/22 1945 - 0.09 42.0   3.7 43.2   4.2 1.2 - 96   0 41.0   3.7 0.0   0.0 0.0   0.0 0   0 41.6   2.7 52.1   5.3 0.09 0.029   0.024
Creston Rd (SLO-2) 12/6/22 1945 - 0.05 40.2   5.5 42.0   5.2 1.7 - 97   0 39.5   5.4 0.4   0.2 2.1   0.7 0   0 39.8   0.2 55.0   2.7 0.05 0.031   0.015
NE Paso Robles (SLO-3) 12/6/22 1945 0.10 0.10 42.3   5.8 43.9   5.2 1.6 - 98   2 41.7   5.2 0.4   0.1 2.1   0.0 0   0 41.5   1.2 52.8   7.4 0.10 0.024   0.027
Cross Canyon Rd (SLO-4) 12/6/22 1945 0.14 0.14 44.8   3.7 46.0   4.1 1.2 - 96   1 43.7   3.5 2.7   0.0 3.8   1.3 0   0 44.2   0.2 52.9   6.1 0.14 0.022   0.023
Willow Creek (SLO-5) 12/6/22 1945 0.27 0.27 35.2   4.8 36.3   5.7 1.1 - 100   2 35.2   4.4 0.0   1.5 0.0   3.1 0   0 34.5   3.0 49.8   4.9 0.27 0.021   0.015
Shell Creek Rd (SLO-6) 12/6/22 1945 - - 43.3   2.4 44.3   2.5 1.0 - 96   0 42.2   2.4 0.0   2.8 0.0   4.1 0   0 39.9   1.9 53.7   3.5 0.00 0.037   0.017
South Shandon (SLO-7) 12/6/22 1945 0.13 0.13 42.6   2.7 43.7   2.5 1.1 - 88   0 39.2   2.5 1.4   1.4 3.4   3.4 0   0 41.2   2.6 51.5   5.4 0.13 0.030   0.021
South Creston (SLO-8) 12/6/22 1945 - 0.07 40.9   3.1 42.2   3.1 1.3 - 99   1 40.6   2.9 0.0   0.6 0.0   2.7 0   0 38.0   3.2 52.4   7.3 0.07 0.029   0.016
Pozo Rd (SLO-9) 12/6/22 1945 0.20 0.20 37.4   4.0 38.9   2.8 1.4 - 98   0 37.0   4.0 0.0   0.0 1.4   1.4 0   0 31.7   5.3 53.4   2.5 0.20 0.030   0.010
Experimental Station (SLO-10) 12/6/22 1945 0.21 0.17 40.8   6.3 42.5   4.9 1.7 - 97   1 40.2   6.0 0.4   0.4 2.7   1.3 0   0 39.9   1.2 52.2   6.3 0.17 0.021   0.022
Vineyard Drive (SLO-11) 12/6/22 1945 0.53 0.53 35.6   4.3 36.3   4.5 0.8 - 100   0 35.6   4.1 0.0   0.0 0.0   0.0 0   0 34.0   2.7 51.2   4.2 0.53 0.020   0.014
Von Dollen Road (SLO-12) 12/6/22 1945 0.19 0.19 41.6   5.0 44.4   2.8 2.8 39.0 99   2 41.4   4.4 4.2   4.1 5.4   3.0 0   0 41.4   2.4 51.8   5.3 0.19 0.024   0.025
Templeton Gap West (SLO-13) 12/6/22 1945 0.12 0.12 39.2   6.1 40.2   6.7 1.0 - 99   2 39.0   5.7 0.0   1.0 0.0   4.1 0   0 38.3   0.2 52.4   5.6 0.12 0.023   0.018
Orcutt Road (SLO-14) 12/6/22 1945 - 0.05 42.9   4.3 43.0   5.5 0.1 - 95   0 41.6   4.4 0.0   0.3 0.0   2.1 0   0 39.2   2.5 57.7   3.2 0.05 0.039   0.016
Tiffany Ranch Rd (SLO-15) 12/6/22 1945 - 0.08 42.7   3.0 44.5   2.4 1.9 - 100   1 42.6   2.8 0.6   0.6 2.4   2.4 0   0 40.7   1.8 60.4   0.8 0.08 0.044   0.007
Chimney Rock Rd (SLO-16) 12/6/22 1945 0.36 0.36 36.1   4.0 37.4   5.2 1.4 - 99   1 35.9   3.9 0.0   0.1 0.0   2.1 0   0 32.1   5.6 51.4   4.1 0.36 0.023   0.022
Nipomo Mesa (SLO-17) 12/6/22 1945 - - 44.6   0.3 48.2   0.0 3.6 - 97   2 43.8   0.8 1.5   1.5 3.4   2.3 0   0 37.6   4.6 60.7   0.5 0.00 0.056   0.003
Morro Creek (SLO-18) 12/6/22 1945 0.19 0.19 43.5   3.9 44.8   3.4 1.4 - 95   4 42.2   5.0 0.2   0.2 2.7   0.3 0   0 41.6   2.2 58.0   2.1 0.19 0.028   0.016
Paso Robles Airport ETo 12/6/22 1945 0.26 0.26 41.4   5.2 42.8   5.2 1.4 - 97   2 40.7   4.7 0.0   0.0 0.0   0.0 0   0 41.0   0.5 52.4   6.5 0.26 0.021   0.024
West Shandon (SLO-20) 12/6/22 1945 0.10 0.10 43.7   3.2 44.7   3.4 1.0 - 90   0 41.1   3.1 0.0   0.5 0.0   2.4 0   0 42.3   3.2 53.7   4.5 0.10 0.032   0.020
Max     0.53 0.53 44.8 48.2 3.6 - 100 43.8 4.2 5.4 0 44.2 60.7 0.53 0.056
Avg     0.22 0.17 41.0 42.5 1.4 - 97 40.2 0.6 1.5 0 - - - -
Min     0.10 0.05 35.2 36.3 0.1 - 88 35.2 0.0 0.0 0 31.7 49.8 0.00 0.020

Latest Observation

20 Stations

Daily Data | America/Los_Angeles
as of 12/6/22 7:56 PM PST
Station Date Daily Max Temp 5ft (°F) Time of Max Temp Daily Min Temp 5ft (°F) Time of Min Temp Daily Rain (In) Month Precip (In) Season Precip (In) Wind Spd (mph) Daily Max Wind (mph) Time of Max Wind Dew Pt (°F) Max RH (%) Min RH (%) Max 1 Min Rain (In) Max 1 Min Rain Time Max 15 Min Rain (In) Max 15 Min Precip Time Max 60 Min Rain (In) Max 60 Min Rain Time Daily Max Temp 30ft (°F) Daily Min Temp 30ft (°F) Max Inversion (°F) Max Inversion Time Min Inversion (°F) Min Inversion Time Daily Solar Rad (Cal/cm2) MinBV Day (V)
Shandon ETo (SLO-1) 12/5/22 57.4 1326 42.5 2140 0.00 1.06 3.22 2.0 14.8 1213 45.5 99 61 - - - - - - 57.1 43.0 3.8 2137 -3.0 1237 252 12.5
Creston Rd (SLO-2) 12/5/22 57.7 1336 40.0 0122 0.00 1.30 2.53 1.8 11.1 1521 44.2 100 64 - - - - - - 58.6 40.3 2.7 1949 -3.2 0913 216 12.4
NE Paso Robles (SLO-3) 12/5/22 60.2 1446 42.7 0018 0.00 1.41 2.37 1.5 11.8 1610 45.6 100 61 - - - - - - 59.6 42.8 5.3 0947 -2.8 1255 226 12.4
Cross Canyon Rd (SLO-4) 12/5/22 59.0 1416 44.0 0014 0.00 1.53 2.29 1.2 9.5 1532 46.4 100 60 - - - - - - 60.5 43.7 4.5 1030 -2.3 1156 200 12.5
Willow Creek (SLO-5) 12/5/22 54.7 1234 35.7 2356 0.00 4.18 6.07 1.5 11.1 1037 41.6 100 72 - - - - - - 55.3 38.2 5.1 0831 -1.3 1036 175 12.4
Shell Creek Rd (SLO-6) 12/5/22 57.2 1310 41.5 2319 0.00 1.05 2.30 3.7 13.2 1227 44.5 99 62 - - - - - - 57.4 42.0 3.8 0911 -2.2 1153 251 12.3
South Shandon (SLO-7) 12/5/22 56.9 1322 43.0 2141 0.00 1.10 2.83 2.3 13.5 1230 43.5 88 59 - - - - - - 57.2 43.4 2.4 1952 -2.8 0924 246 12.4
South Creston (SLO-8) 12/5/22 59.7 1419 38.0 2323 0.00 1.44 3.28 2.5 10.8 0948 43.9 100 60 - - - - - - 60.3 39.1 2.8 2314 -2.6 1144 200 12.4
Pozo Rd (SLO-9) 12/5/22 55.9 1234 33.9 2329 0.00 2.84 5.31 1.5 11.1 1514 42.0 100 66 - - - - - - 56.2 35.3 3.0 2353 -2.5 1203 186 12.4
Experimental Station (SLO-10) 12/5/22 58.5 1300 41.1 0546 0.04 2.01 2.83 0.6 8.1 1250 44.2 98 60 0.01 1638 0.02 1614 0.03 1659 63.6 40.9 5.7 1257 -3.7 0904 200 12.4
Vineyard Drive (SLO-11) 12/5/22 55.4 1324 34.4 2332 0.00 4.56 6.82 0.6 8.8 1024 41.8 100 74 - - - - - - 56.3 36.3 4.3 0815 -1.8 0822 162 12.4
Von Dollen Road (SLO-12) 12/5/22 57.1 1308 43.1 2230 0.00 1.47 2.67 1.1 12.8 1350 45.7 100 62 - - - - - - 60.9 43.4 7.6 1025 -3.5 0949 223 12.5
Templeton Gap West (SLO-13) 12/5/22 58.0 1403 38.2 0601 0.00 2.71 4.02 1.5 11.1 1448 44.1 100 69 - - - - - - 58.5 39.2 6.1 0838 -2.4 0944 193 12.4
Orcutt Road (SLO-14) 12/5/22 61.0 1257 41.7 0711 0.00 3.16 5.93 1.8 15.2 1245 47.0 99 62 - - - - - - 60.6 42.9 3.2 0954 -2.2 1257 242 12.5
Tiffany Ranch Rd (SLO-15) 12/5/22 61.2 1321 42.3 2308 0.00 2.76 5.55 2.0 12.5 1519 47.7 100 63 - - - - - - 60.5 43.4 3.6 0738 -3.6 1304 219 12.4
Chimney Rock Rd (SLO-16) 12/5/22 55.5 1308 35.6 2321 0.00 3.44 5.01 1.1 13.2 1106 41.6 100 70 - - - - - - 56.5 38.0 4.8 2215 -2.8 1059 216 12.4
Nipomo Mesa (SLO-17) 12/5/22 61.2 1321 40.8 2355 0.00 2.80 4.93 1.5 10.5 1119 47.4 100 66 - - - - - - 60.6 42.8 5.7 0819 -4.2 0938 263 12.5
Morro Creek (SLO-18) 12/5/22 60.1 1201 43.2 2330 0.00 2.80 4.33 0.4 9.5 1422 48.1 100 71 - - - - - - 59.6 44.5 4.3 2328 -4.8 1201 196 12.4
Paso Robles Airport ETo 12/5/22 58.9 1424 41.5 0116 0.00 1.68 2.61 0.4 8.4 1533 44.7 99 60 - - - - - - 59.3 41.6 3.7 1058 -2.7 1158 206 12.4
West Shandon (SLO-20) 12/5/22 58.2 1350 43.4 2206 0.00 1.07 2.07 2.5 14.5 1330 45.5 93 63 - - - - - - 58.4 44.1 3.5 1832 -2.3 1208 244 12.4
Max   61.2 - 44.0 - 0.04 4.56 6.82 3.7 15.2 - 48.1 100 74 - - - - - - 63.6 44.5 7.6 - -1.3 - 263 12.5
Avg   - - - - - - - 1.6 - - 44.8 - - - - - - - - - - - - - - - -
Min   54.7 - 33.9 - 0.00 1.05 2.07 0.4 8.1 - 41.6 88 59 - - - - - - 55.3 35.3 2.4 - -4.8 - 162 12.3

Latest Observation

20 Stations

Daily Data | America/Los_Angeles
as of 12/6/22 7:56 PM PST
Station Date Daily ETo (in) 7 Day ETo (in) Hrs 70-85F (hrs) Hrs > 95F (hrs) GDDs (DL) GDDs (Mx/Mn) Hrs <= 32F (hrs) Hrs <= 28F (hrs) Chilling <=45F (hrs) Chill Hrs 32-45F (hrs) Utah Chilling (Units) Chilling <=45F Seas (hrs) Chill Hrs 32-45 Seas (hrs) Utah Chilling Seas (Units) Chill Portions
Shandon ETo (SLO-1) 12/5/22 0.053 0.35 0.00 0.00 1.3 0.0 0.0 0.0 3.4 3.4 7.0 359 336 188 -
Creston Rd (SLO-2) 12/5/22 0.046 0.31 0.00 0.00 1.4 0.0 0.0 0.0 12.3 12.3 7.0 380 298 181 -
NE Paso Robles (SLO-3) 12/5/22 0.051 0.33 0.00 0.00 1.6 1.4 0.0 0.0 9.2 9.2 6.0 357 302 162 -
Cross Canyon Rd (SLO-4) 12/5/22 0.045 0.31 0.00 0.00 1.6 1.5 0.0 0.0 4.6 4.6 5.5 322 299 141 -
Willow Creek (SLO-5) 12/5/22 0.036 0.25 0.00 0.00 0.6 0.0 0.0 0.0 15.5 15.5 20.0 412 358 180 -
Shell Creek Rd (SLO-6) 12/5/22 0.054 0.36 0.00 0.00 1.6 0.0 0.0 0.0 11.1 11.1 6.5 348 284 158 -
South Shandon (SLO-7) 12/5/22 0.051 0.34 0.00 0.00 1.3 0.0 0.0 0.0 5.1 5.1 7.0 352 318 184 -
South Creston (SLO-8) 12/5/22 0.045 0.32 0.00 0.00 1.7 0.0 0.0 0.0 13.0 13.0 7.0 366 256 143 -
Pozo Rd (SLO-9) 12/5/22 0.040 0.28 0.00 0.00 0.9 0.0 0.0 0.0 14.6 14.6 7.5 466 208 103 -
Experimental Station (SLO-10) 12/5/22 0.043 0.29 0.00 0.00 1.3 0.0 0.0 0.0 11.1 11.1 6.5 374 305 178 -
Vineyard Drive (SLO-11) 12/5/22 0.034 0.24 0.00 0.00 0.8 0.0 0.0 0.0 15.0 15.0 19.5 442 320 185 -
Von Dollen Road (SLO-12) 12/5/22 0.049 0.31 0.00 0.00 1.2 0.1 0.0 0.0 7.3 7.3 7.0 334 330 181 -
Templeton Gap West (SLO-13) 12/5/22 0.041 0.27 0.00 0.00 1.5 0.0 0.0 0.0 11.6 11.6 7.0 398 270 169 -
Orcutt Road (SLO-14) 12/5/22 0.055 0.32 0.00 0.00 2.3 1.3 0.0 0.0 3.3 3.3 6.0 240 230 116 -
Tiffany Ranch Rd (SLO-15) 12/5/22 0.051 0.30 0.00 0.00 2.6 1.8 0.0 0.0 5.0 5.0 6.0 316 264 128 -
Chimney Rock Rd (SLO-16) 12/5/22 0.045 0.27 0.00 0.00 0.9 0.0 0.0 0.0 15.0 15.0 20.0 427 335 191 -
Nipomo Mesa (SLO-17) 12/5/22 0.059 0.34 0.00 0.00 2.7 1.0 0.0 0.0 7.0 7.0 6.5 174 165 92 -
Morro Creek (SLO-18) 12/5/22 0.044 0.31 0.00 0.00 2.4 1.7 0.0 0.0 2.8 2.8 6.0 135 135 118 -
Paso Robles Airport ETo 12/5/22 0.045 0.32 0.00 0.00 1.4 0.2 0.0 0.0 10.4 10.4 17.5 397 274 262 22
West Shandon (SLO-20) 12/5/22 0.052 0.37 0.00 0.00 1.6 0.8 0.0 0.0 0.9 0.9 15.5 331 314 308 22
Max   0.059 0.37 0.00 0.00 2.7 1.8 0.0 0.0 15.5 15.5 20.0 - - - 22
Avg   - - 0.00 0.00 1.5 0.5 0.0 0.0 8.9 8.9 9.6 - - - 22
Min   0.034 0.24 0.00 0.00 0.6 0.0 0.0 0.0 0.9 0.9 5.5 - - - 22